sensor_id;sensor_type;location;lat;lon;timestamp;P1;durP1;ratioP1;P2;durP2;ratioP2
82742;SDS011;72483;50.656;7.216;2023-09-19T00:01:41;1.15;;;0.52;;
82742;SDS011;72483;50.656;7.216;2023-09-19T00:04:11;2.17;;;0.80;;
82742;SDS011;72483;50.656;7.216;2023-09-19T00:06:37;2.45;;;1.00;;
82742;SDS011;72483;50.656;7.216;2023-09-19T00:09:04;2.72;;;0.90;;
82742;SDS011;72483;50.656;7.216;2023-09-19T00:11:35;1.33;;;0.70;;
82742;SDS011;72483;50.656;7.216;2023-09-19T00:14:02;1.60;;;0.80;;
82742;SDS011;72483;50.656;7.216;2023-09-19T00:16:29;1.42;;;0.80;;
82742;SDS011;72483;50.656;7.216;2023-09-19T00:18:57;2.22;;;0.82;;
82742;SDS011;72483;50.656;7.216;2023-09-19T00:21:25;2.53;;;0.80;;
82742;SDS011;72483;50.656;7.216;2023-09-19T00:23:53;2.22;;;0.80;;
82742;SDS011;72483;50.656;7.216;2023-09-19T00:26:20;2.45;;;1.00;;
82742;SDS011;72483;50.656;7.216;2023-09-19T00:28:47;0.85;;;0.60;;
82742;SDS011;72483;50.656;7.216;2023-09-19T00:31:13;1.88;;;0.77;;
82742;SDS011;72483;50.656;7.216;2023-09-19T00:33:40;1.90;;;0.90;;
82742;SDS011;72483;50.656;7.216;2023-09-19T00:36:07;2.65;;;1.00;;
82742;SDS011;72483;50.656;7.216;2023-09-19T00:38:35;3.03;;;1.05;;
82742;SDS011;72483;50.656;7.216;2023-09-19T00:41:02;1.88;;;0.80;;
82742;SDS011;72483;50.656;7.216;2023-09-19T00:43:28;1.95;;;0.80;;
82742;SDS011;72483;50.656;7.216;2023-09-19T00:45:59;1.45;;;0.73;;
82742;SDS011;72483;50.656;7.216;2023-09-19T00:48:28;1.38;;;0.70;;
82742;SDS011;72483;50.656;7.216;2023-09-19T00:50:55;1.92;;;0.77;;
82742;SDS011;72483;50.656;7.216;2023-09-19T00:53:25;2.55;;;0.60;;
82742;SDS011;72483;50.656;7.216;2023-09-19T00:55:53;2.15;;;0.80;;
82742;SDS011;72483;50.656;7.216;2023-09-19T00:58:21;1.73;;;0.70;;
82742;SDS011;72483;50.656;7.216;2023-09-19T01:00:47;1.98;;;0.80;;
82742;SDS011;72483;50.656;7.216;2023-09-19T01:03:14;3.15;;;0.98;;
82742;SDS011;72483;50.656;7.216;2023-09-19T01:05:41;1.77;;;0.70;;
82742;SDS011;72483;50.656;7.216;2023-09-19T01:08:08;3.13;;;1.00;;
82742;SDS011;72483;50.656;7.216;2023-09-19T01:10:59;1.77;;;0.90;;
82742;SDS011;72483;50.656;7.216;2023-09-19T01:13:31;1.58;;;0.70;;
82742;SDS011;72483;50.656;7.216;2023-09-19T01:16:06;1.55;;;0.75;;
82742;SDS011;72483;50.656;7.216;2023-09-19T01:18:40;1.10;;;0.77;;
82742;SDS011;72483;50.656;7.216;2023-09-19T01:21:15;1.38;;;0.70;;
82742;SDS011;72483;50.656;7.216;2023-09-19T01:23:55;1.58;;;0.82;;
82742;SDS011;72483;50.656;7.216;2023-09-19T01:27:00;0.95;;;0.52;;
82742;SDS011;72483;50.656;7.216;2023-09-19T01:29:42;1.90;;;0.60;;
82742;SDS011;72483;50.656;7.216;2023-09-19T01:32:13;1.42;;;0.73;;
82742;SDS011;72483;50.656;7.216;2023-09-19T01:34:46;2.25;;;0.90;;
82742;SDS011;72483;50.656;7.216;2023-09-19T01:37:14;1.27;;;0.80;;
82742;SDS011;72483;50.656;7.216;2023-09-19T01:39:44;1.45;;;0.77;;
82742;SDS011;72483;50.656;7.216;2023-09-19T01:42:17;2.92;;;0.80;;
82742;SDS011;72483;50.656;7.216;2023-09-19T01:44:51;1.55;;;0.77;;
82742;SDS011;72483;50.656;7.216;2023-09-19T01:47:26;2.92;;;0.90;;
82742;SDS011;72483;50.656;7.216;2023-09-19T01:49:59;1.10;;;0.70;;
82742;SDS011;72483;50.656;7.216;2023-09-19T01:52:38;1.65;;;0.68;;
82742;SDS011;72483;50.656;7.216;2023-09-19T01:55:13;2.10;;;0.90;;
82742;SDS011;72483;50.656;7.216;2023-09-19T01:57:45;1.67;;;0.60;;
82742;SDS011;72483;50.656;7.216;2023-09-19T02:00:18;2.28;;;0.82;;
82742;SDS011;72483;50.656;7.216;2023-09-19T02:02:50;2.42;;;0.80;;
82742;SDS011;72483;50.656;7.216;2023-09-19T02:05:24;1.55;;;0.80;;
82742;SDS011;72483;50.656;7.216;2023-09-19T02:07:52;1.30;;;0.70;;
82742;SDS011;72483;50.656;7.216;2023-09-19T02:10:20;2.83;;;1.15;;
82742;SDS011;72483;50.656;7.216;2023-09-19T02:12:47;0.88;;;0.55;;
82742;SDS011;72483;50.656;7.216;2023-09-19T02:15:14;1.33;;;0.75;;
82742;SDS011;72483;50.656;7.216;2023-09-19T02:17:41;2.83;;;0.90;;
82742;SDS011;72483;50.656;7.216;2023-09-19T02:20:10;1.92;;;0.73;;
82742;SDS011;72483;50.656;7.216;2023-09-19T02:22:39;1.77;;;0.70;;
82742;SDS011;72483;50.656;7.216;2023-09-19T02:25:06;1.92;;;0.70;;
82742;SDS011;72483;50.656;7.216;2023-09-19T02:27:33;1.55;;;0.70;;
82742;SDS011;72483;50.656;7.216;2023-09-19T02:30:00;1.95;;;1.00;;
82742;SDS011;72483;50.656;7.216;2023-09-19T02:32:29;1.90;;;0.80;;
82742;SDS011;72483;50.656;7.216;2023-09-19T02:34:56;1.33;;;0.68;;
82742;SDS011;72483;50.656;7.216;2023-09-19T02:37:25;2.25;;;0.82;;
82742;SDS011;72483;50.656;7.216;2023-09-19T02:39:51;2.33;;;0.80;;
82742;SDS011;72483;50.656;7.216;2023-09-19T02:42:18;1.63;;;0.75;;
82742;SDS011;72483;50.656;7.216;2023-09-19T02:44:45;1.92;;;0.60;;
82742;SDS011;72483;50.656;7.216;2023-09-19T02:47:13;1.92;;;0.77;;
82742;SDS011;72483;50.656;7.216;2023-09-19T02:49:40;2.00;;;0.68;;
82742;SDS011;72483;50.656;7.216;2023-09-19T02:52:07;1.88;;;0.77;;
82742;SDS011;72483;50.656;7.216;2023-09-19T02:54:37;0.60;;;0.60;;
82742;SDS011;72483;50.656;7.216;2023-09-19T02:57:04;0.90;;;0.68;;
82742;SDS011;72483;50.656;7.216;2023-09-19T02:59:31;1.88;;;0.77;;
82742;SDS011;72483;50.656;7.216;2023-09-19T03:01:58;1.35;;;0.70;;
82742;SDS011;72483;50.656;7.216;2023-09-19T03:04:25;1.10;;;0.70;;
82742;SDS011;72483;50.656;7.216;2023-09-19T03:06:52;3.30;;;0.90;;
82742;SDS011;72483;50.656;7.216;2023-09-19T03:11:51;1.42;;;0.70;;
82742;SDS011;72483;50.656;7.216;2023-09-19T03:14:19;1.27;;;0.60;;
82742;SDS011;72483;50.656;7.216;2023-09-19T03:16:46;1.42;;;0.68;;
82742;SDS011;72483;50.656;7.216;2023-09-19T03:19:12;2.20;;;0.77;;
82742;SDS011;72483;50.656;7.216;2023-09-19T03:21:40;1.42;;;0.63;;
82742;SDS011;72483;50.656;7.216;2023-09-19T03:24:07;1.70;;;0.70;;
82742;SDS011;72483;50.656;7.216;2023-09-19T03:26:33;2.05;;;0.80;;
82742;SDS011;72483;50.656;7.216;2023-09-19T03:29:04;0.70;;;0.57;;
82742;SDS011;72483;50.656;7.216;2023-09-19T03:31:32;2.17;;;0.80;;
82742;SDS011;72483;50.656;7.216;2023-09-19T03:34:02;1.17;;;0.57;;
82742;SDS011;72483;50.656;7.216;2023-09-19T03:36:28;3.17;;;0.70;;
82742;SDS011;72483;50.656;7.216;2023-09-19T03:38:55;2.60;;;0.70;;
82742;SDS011;72483;50.656;7.216;2023-09-19T03:41:22;1.48;;;0.70;;
82742;SDS011;72483;50.656;7.216;2023-09-19T03:43:48;2.05;;;0.77;;
82742;SDS011;72483;50.656;7.216;2023-09-19T03:46:16;1.92;;;0.68;;
82742;SDS011;72483;50.656;7.216;2023-09-19T03:48:43;0.90;;;0.65;;
82742;SDS011;72483;50.656;7.216;2023-09-19T03:51:09;0.95;;;0.55;;
82742;SDS011;72483;50.656;7.216;2023-09-19T03:53:39;1.27;;;0.50;;
82742;SDS011;72483;50.656;7.216;2023-09-19T03:56:06;1.52;;;0.60;;
82742;SDS011;72483;50.656;7.216;2023-09-19T03:58:33;1.38;;;0.60;;
82742;SDS011;72483;50.656;7.216;2023-09-19T04:01:04;3.17;;;0.82;;
82742;SDS011;72483;50.656;7.216;2023-09-19T04:03:32;2.03;;;1.02;;
82742;SDS011;72483;50.656;7.216;2023-09-19T04:06:10;1.70;;;0.70;;
82742;SDS011;72483;50.656;7.216;2023-09-19T04:08:37;2.70;;;0.98;;
82742;SDS011;72483;50.656;7.216;2023-09-19T04:11:04;2.83;;;0.88;;
82742;SDS011;72483;50.656;7.216;2023-09-19T04:13:31;3.40;;;0.60;;
82742;SDS011;72483;50.656;7.216;2023-09-19T04:15:57;1.98;;;0.63;;
82742;SDS011;72483;50.656;7.216;2023-09-19T04:18:24;1.65;;;0.55;;
82742;SDS011;72483;50.656;7.216;2023-09-19T04:20:52;2.42;;;0.80;;
82742;SDS011;72483;50.656;7.216;2023-09-19T04:23:18;2.10;;;0.93;;
82742;SDS011;72483;50.656;7.216;2023-09-19T04:25:46;1.83;;;0.65;;
82742;SDS011;72483;50.656;7.216;2023-09-19T04:28:13;2.58;;;0.80;;
82742;SDS011;72483;50.656;7.216;2023-09-19T04:30:40;1.13;;;0.60;;
82742;SDS011;72483;50.656;7.216;2023-09-19T04:33:07;1.77;;;0.80;;
82742;SDS011;72483;50.656;7.216;2023-09-19T04:35:34;0.68;;;0.55;;
82742;SDS011;72483;50.656;7.216;2023-09-19T04:38:02;2.17;;;0.65;;
82742;SDS011;72483;50.656;7.216;2023-09-19T04:40:31;2.60;;;0.82;;
82742;SDS011;72483;50.656;7.216;2023-09-19T04:42:59;2.33;;;0.70;;
82742;SDS011;72483;50.656;7.216;2023-09-19T04:45:26;2.10;;;0.77;;
82742;SDS011;72483;50.656;7.216;2023-09-19T04:47:54;2.88;;;0.80;;
82742;SDS011;72483;50.656;7.216;2023-09-19T04:50:21;1.70;;;0.75;;
82742;SDS011;72483;50.656;7.216;2023-09-19T04:52:48;2.13;;;0.77;;
82742;SDS011;72483;50.656;7.216;2023-09-19T04:55:17;1.42;;;0.60;;
82742;SDS011;72483;50.656;7.216;2023-09-19T04:57:45;2.22;;;0.70;;
82742;SDS011;72483;50.656;7.216;2023-09-19T05:00:13;2.15;;;0.77;;
82742;SDS011;72483;50.656;7.216;2023-09-19T05:02:43;3.33;;;0.90;;
82742;SDS011;72483;50.656;7.216;2023-09-19T05:05:10;1.08;;;0.60;;
82742;SDS011;72483;50.656;7.216;2023-09-19T05:07:38;2.08;;;0.68;;
82742;SDS011;72483;50.656;7.216;2023-09-19T05:10:07;1.42;;;0.60;;
82742;SDS011;72483;50.656;7.216;2023-09-19T05:12:36;1.02;;;0.50;;
82742;SDS011;72483;50.656;7.216;2023-09-19T05:15:03;0.88;;;0.60;;
82742;SDS011;72483;50.656;7.216;2023-09-19T05:17:32;2.25;;;0.75;;
82742;SDS011;72483;50.656;7.216;2023-09-19T05:19:59;2.50;;;0.93;;
82742;SDS011;72483;50.656;7.216;2023-09-19T05:22:31;1.58;;;0.65;;
82742;SDS011;72483;50.656;7.216;2023-09-19T05:24:59;1.25;;;0.60;;
82742;SDS011;72483;50.656;7.216;2023-09-19T05:27:25;2.42;;;0.90;;
82742;SDS011;72483;50.656;7.216;2023-09-19T05:29:53;1.45;;;0.60;;
82742;SDS011;72483;50.656;7.216;2023-09-19T05:32:20;2.28;;;0.90;;
82742;SDS011;72483;50.656;7.216;2023-09-19T05:34:47;1.52;;;0.57;;
82742;SDS011;72483;50.656;7.216;2023-09-19T05:37:18;1.70;;;0.68;;
82742;SDS011;72483;50.656;7.216;2023-09-19T05:39:44;1.65;;;0.77;;
82742;SDS011;72483;50.656;7.216;2023-09-19T05:42:13;1.80;;;0.60;;
82742;SDS011;72483;50.656;7.216;2023-09-19T05:44:40;3.13;;;0.90;;
82742;SDS011;72483;50.656;7.216;2023-09-19T05:47:08;1.40;;;0.70;;
82742;SDS011;72483;50.656;7.216;2023-09-19T05:49:35;2.75;;;0.80;;
82742;SDS011;72483;50.656;7.216;2023-09-19T05:52:03;3.63;;;1.00;;
82742;SDS011;72483;50.656;7.216;2023-09-19T05:54:30;2.00;;;0.70;;
82742;SDS011;72483;50.656;7.216;2023-09-19T05:56:58;1.27;;;0.70;;
82742;SDS011;72483;50.656;7.216;2023-09-19T05:59:24;0.75;;;0.52;;
82742;SDS011;72483;50.656;7.216;2023-09-19T06:01:51;1.67;;;0.63;;
82742;SDS011;72483;50.656;7.216;2023-09-19T06:04:19;2.08;;;0.75;;
82742;SDS011;72483;50.656;7.216;2023-09-19T06:06:46;2.13;;;0.77;;
82742;SDS011;72483;50.656;7.216;2023-09-19T06:09:13;1.38;;;0.60;;
82742;SDS011;72483;50.656;7.216;2023-09-19T06:11:41;1.52;;;0.68;;
82742;SDS011;72483;50.656;7.216;2023-09-19T06:14:07;1.48;;;0.70;;
82742;SDS011;72483;50.656;7.216;2023-09-19T06:16:35;2.40;;;0.70;;
82742;SDS011;72483;50.656;7.216;2023-09-19T06:19:03;2.33;;;0.73;;
82742;SDS011;72483;50.656;7.216;2023-09-19T06:21:33;2.08;;;0.82;;
82742;SDS011;72483;50.656;7.216;2023-09-19T06:23:59;1.90;;;0.75;;
82742;SDS011;72483;50.656;7.216;2023-09-19T06:26:26;1.13;;;0.55;;
82742;SDS011;72483;50.656;7.216;2023-09-19T06:28:53;1.60;;;0.70;;
82742;SDS011;72483;50.656;7.216;2023-09-19T06:31:20;2.58;;;0.88;;
82742;SDS011;72483;50.656;7.216;2023-09-19T06:33:48;1.67;;;0.68;;
82742;SDS011;72483;50.656;7.216;2023-09-19T06:36:14;1.42;;;0.68;;
82742;SDS011;72483;50.656;7.216;2023-09-19T06:38:42;1.63;;;0.70;;
82742;SDS011;72483;50.656;7.216;2023-09-19T06:41:09;1.27;;;0.60;;
82742;SDS011;72483;50.656;7.216;2023-09-19T06:43:36;2.13;;;0.90;;
82742;SDS011;72483;50.656;7.216;2023-09-19T06:46:04;0.82;;;0.50;;
82742;SDS011;72483;50.656;7.216;2023-09-19T06:48:32;2.80;;;0.82;;
82742;SDS011;72483;50.656;7.216;2023-09-19T06:50:58;2.60;;;0.75;;
82742;SDS011;72483;50.656;7.216;2023-09-19T06:53:27;1.67;;;0.73;;
82742;SDS011;72483;50.656;7.216;2023-09-19T06:55:58;0.90;;;0.60;;
82742;SDS011;72483;50.656;7.216;2023-09-19T06:58:24;2.13;;;0.73;;
82742;SDS011;72483;50.656;7.216;2023-09-19T07:00:51;1.83;;;0.60;;
82742;SDS011;72483;50.656;7.216;2023-09-19T07:03:17;1.55;;;0.77;;
82742;SDS011;72483;50.656;7.216;2023-09-19T07:05:46;2.45;;;0.60;;
82742;SDS011;72483;50.656;7.216;2023-09-19T07:08:13;2.42;;;0.80;;
82742;SDS011;72483;50.656;7.216;2023-09-19T07:10:41;3.60;;;0.90;;
82742;SDS011;72483;50.656;7.216;2023-09-19T07:13:15;4.03;;;1.10;;
82742;SDS011;72483;50.656;7.216;2023-09-19T07:15:42;2.17;;;0.90;;
82742;SDS011;72483;50.656;7.216;2023-09-19T07:18:12;2.28;;;0.60;;
82742;SDS011;72483;50.656;7.216;2023-09-19T07:20:39;3.10;;;0.90;;
82742;SDS011;72483;50.656;7.216;2023-09-19T07:23:10;2.85;;;0.82;;
82742;SDS011;72483;50.656;7.216;2023-09-19T07:25:39;2.38;;;0.85;;
82742;SDS011;72483;50.656;7.216;2023-09-19T07:28:05;3.35;;;0.80;;
82742;SDS011;72483;50.656;7.216;2023-09-19T07:30:35;4.30;;;0.82;;
82742;SDS011;72483;50.656;7.216;2023-09-19T07:33:04;1.55;;;0.70;;
82742;SDS011;72483;50.656;7.216;2023-09-19T07:35:31;1.70;;;0.70;;
82742;SDS011;72483;50.656;7.216;2023-09-19T07:37:57;1.45;;;0.70;;
82742;SDS011;72483;50.656;7.216;2023-09-19T07:40:26;2.95;;;0.77;;
82742;SDS011;72483;50.656;7.216;2023-09-19T07:42:53;2.63;;;0.80;;
82742;SDS011;72483;50.656;7.216;2023-09-19T07:45:20;3.40;;;1.00;;
82742;SDS011;72483;50.656;7.216;2023-09-19T07:47:49;2.90;;;0.80;;
82742;SDS011;72483;50.656;7.216;2023-09-19T07:50:16;2.30;;;0.80;;
82742;SDS011;72483;50.656;7.216;2023-09-19T07:52:44;2.40;;;0.77;;
82742;SDS011;72483;50.656;7.216;2023-09-19T07:55:11;2.65;;;0.70;;
82742;SDS011;72483;50.656;7.216;2023-09-19T07:57:41;0.55;;;0.43;;
82742;SDS011;72483;50.656;7.216;2023-09-19T08:00:09;2.10;;;0.73;;
82742;SDS011;72483;50.656;7.216;2023-09-19T08:02:36;2.22;;;0.73;;
82742;SDS011;72483;50.656;7.216;2023-09-19T08:05:05;2.60;;;0.77;;
82742;SDS011;72483;50.656;7.216;2023-09-19T08:07:34;1.95;;;0.70;;
82742;SDS011;72483;50.656;7.216;2023-09-19T08:10:01;1.85;;;0.95;;
82742;SDS011;72483;50.656;7.216;2023-09-19T08:12:28;1.75;;;0.60;;
82742;SDS011;72483;50.656;7.216;2023-09-19T08:14:55;2.97;;;0.85;;
82742;SDS011;72483;50.656;7.216;2023-09-19T08:17:22;1.88;;;0.80;;
82742;SDS011;72483;50.656;7.216;2023-09-19T08:19:48;3.25;;;0.70;;
82742;SDS011;72483;50.656;7.216;2023-09-19T08:22:19;2.78;;;0.82;;
82742;SDS011;72483;50.656;7.216;2023-09-19T08:24:46;2.92;;;0.80;;
82742;SDS011;72483;50.656;7.216;2023-09-19T08:27:13;2.10;;;0.90;;
82742;SDS011;72483;50.656;7.216;2023-09-19T08:29:43;0.57;;;0.50;;
82742;SDS011;72483;50.656;7.216;2023-09-19T08:32:09;2.15;;;0.63;;
82742;SDS011;72483;50.656;7.216;2023-09-19T08:34:36;1.90;;;0.75;;
82742;SDS011;72483;50.656;7.216;2023-09-19T08:37:03;2.83;;;0.95;;
82742;SDS011;72483;50.656;7.216;2023-09-19T08:39:31;1.75;;;0.60;;
82742;SDS011;72483;50.656;7.216;2023-09-19T08:42:00;2.33;;;0.70;;
82742;SDS011;72483;50.656;7.216;2023-09-19T08:44:27;3.03;;;0.90;;
82742;SDS011;72483;50.656;7.216;2023-09-19T08:46:55;2.70;;;0.80;;
82742;SDS011;72483;50.656;7.216;2023-09-19T08:49:33;2.78;;;0.90;;
82742;SDS011;72483;50.656;7.216;2023-09-19T08:52:10;2.17;;;0.70;;
82742;SDS011;72483;50.656;7.216;2023-09-19T08:54:47;2.03;;;0.70;;
82742;SDS011;72483;50.656;7.216;2023-09-19T08:57:15;3.08;;;1.10;;
82742;SDS011;72483;50.656;7.216;2023-09-19T08:59:47;2.30;;;0.75;;
82742;SDS011;72483;50.656;7.216;2023-09-19T09:02:16;3.03;;;0.73;;
82742;SDS011;72483;50.656;7.216;2023-09-19T09:04:44;3.70;;;1.00;;
82742;SDS011;72483;50.656;7.216;2023-09-19T09:07:12;1.55;;;0.70;;
82742;SDS011;72483;50.656;7.216;2023-09-19T09:09:39;2.65;;;0.88;;
82742;SDS011;72483;50.656;7.216;2023-09-19T09:12:09;2.95;;;1.00;;
82742;SDS011;72483;50.656;7.216;2023-09-19T09:14:38;3.17;;;0.95;;
82742;SDS011;72483;50.656;7.216;2023-09-19T09:17:05;3.42;;;0.73;;
82742;SDS011;72483;50.656;7.216;2023-09-19T09:19:32;5.00;;;1.20;;
82742;SDS011;72483;50.656;7.216;2023-09-19T09:22:05;3.22;;;0.73;;
82742;SDS011;72483;50.656;7.216;2023-09-19T09:24:33;2.65;;;1.00;;
82742;SDS011;72483;50.656;7.216;2023-09-19T09:27:02;2.00;;;0.82;;
82742;SDS011;72483;50.656;7.216;2023-09-19T09:29:45;2.50;;;0.80;;
82742;SDS011;72483;50.656;7.216;2023-09-19T09:32:21;1.50;;;0.75;;
82742;SDS011;72483;50.656;7.216;2023-09-19T09:34:50;1.95;;;0.73;;
82742;SDS011;72483;50.656;7.216;2023-09-19T09:37:18;3.05;;;0.90;;
82742;SDS011;72483;50.656;7.216;2023-09-19T09:39:50;3.10;;;0.90;;
82742;SDS011;72483;50.656;7.216;2023-09-19T09:42:28;3.35;;;0.90;;
82742;SDS011;72483;50.656;7.216;2023-09-19T09:45:12;4.00;;;0.80;;
82742;SDS011;72483;50.656;7.216;2023-09-19T09:47:43;3.15;;;0.90;;
82742;SDS011;72483;50.656;7.216;2023-09-19T09:50:23;1.65;;;0.57;;
82742;SDS011;72483;50.656;7.216;2023-09-19T09:52:54;2.40;;;0.80;;
82742;SDS011;72483;50.656;7.216;2023-09-19T09:55:26;2.03;;;0.80;;
82742;SDS011;72483;50.656;7.216;2023-09-19T09:57:58;2.15;;;0.88;;
82742;SDS011;72483;50.656;7.216;2023-09-19T10:00:53;2.92;;;0.85;;
82742;SDS011;72483;50.656;7.216;2023-09-19T10:03:30;2.90;;;0.90;;
82742;SDS011;72483;50.656;7.216;2023-09-19T10:05:59;2.75;;;0.60;;
82742;SDS011;72483;50.656;7.216;2023-09-19T10:08:27;1.52;;;0.70;;
82742;SDS011;72483;50.656;7.216;2023-09-19T10:10:56;2.47;;;0.85;;
82742;SDS011;72483;50.656;7.216;2023-09-19T10:13:30;0.93;;;0.60;;
82742;SDS011;72483;50.656;7.216;2023-09-19T10:16:03;3.08;;;0.82;;
82742;SDS011;72483;50.656;7.216;2023-09-19T10:18:35;3.03;;;0.90;;
82742;SDS011;72483;50.656;7.216;2023-09-19T10:21:04;1.45;;;0.70;;
82742;SDS011;72483;50.656;7.216;2023-09-19T10:23:32;2.55;;;0.77;;
82742;SDS011;72483;50.656;7.216;2023-09-19T10:26:01;1.63;;;0.68;;
82742;SDS011;72483;50.656;7.216;2023-09-19T10:28:28;2.15;;;0.82;;
82742;SDS011;72483;50.656;7.216;2023-09-19T10:30:55;2.63;;;0.77;;
82742;SDS011;72483;50.656;7.216;2023-09-19T10:33:25;2.33;;;0.80;;
82742;SDS011;72483;50.656;7.216;2023-09-19T10:35:51;2.88;;;0.80;;
82742;SDS011;72483;50.656;7.216;2023-09-19T10:38:23;1.83;;;0.80;;
82742;SDS011;72483;50.656;7.216;2023-09-19T10:40:52;2.25;;;0.70;;
82742;SDS011;72483;50.656;7.216;2023-09-19T10:43:20;2.83;;;0.73;;
82742;SDS011;72483;50.656;7.216;2023-09-19T10:45:48;1.90;;;0.88;;
82742;SDS011;72483;50.656;7.216;2023-09-19T10:48:18;2.05;;;0.80;;
82742;SDS011;72483;50.656;7.216;2023-09-19T10:50:48;2.30;;;0.63;;
82742;SDS011;72483;50.656;7.216;2023-09-19T10:53:17;2.10;;;0.80;;
82742;SDS011;72483;50.656;7.216;2023-09-19T10:55:47;1.38;;;0.60;;
82742;SDS011;72483;50.656;7.216;2023-09-19T10:58:24;1.60;;;0.75;;
82742;SDS011;72483;50.656;7.216;2023-09-19T11:00:54;3.47;;;1.02;;
82742;SDS011;72483;50.656;7.216;2023-09-19T11:03:25;2.13;;;0.88;;
82742;SDS011;72483;50.656;7.216;2023-09-19T11:06:04;1.70;;;0.80;;
82742;SDS011;72483;50.656;7.216;2023-09-19T11:08:57;2.10;;;0.70;;
82742;SDS011;72483;50.656;7.216;2023-09-19T11:11:45;1.98;;;0.80;;
82742;SDS011;72483;50.656;7.216;2023-09-19T11:14:16;2.05;;;0.98;;
82742;SDS011;72483;50.656;7.216;2023-09-19T11:23:23;4.43;;;1.30;;
82742;SDS011;72483;50.656;7.216;2023-09-19T11:25:53;5.82;;;1.42;;
82742;SDS011;72483;50.656;7.216;2023-09-19T11:28:28;4.10;;;1.33;;
82742;SDS011;72483;50.656;7.216;2023-09-19T11:40:10;6.95;;;1.48;;
82742;SDS011;72483;50.656;7.216;2023-09-19T11:42:41;6.35;;;1.75;;
82742;SDS011;72483;50.656;7.216;2023-09-19T11:48:11;5.13;;;1.38;;
82742;SDS011;72483;50.656;7.216;2023-09-19T11:50:40;5.85;;;1.58;;
82742;SDS011;72483;50.656;7.216;2023-09-19T11:53:09;3.35;;;1.13;;
82742;SDS011;72483;50.656;7.216;2023-09-19T11:55:37;7.32;;;2.10;;
82742;SDS011;72483;50.656;7.216;2023-09-19T11:58:04;5.13;;;1.27;;
82742;SDS011;72483;50.656;7.216;2023-09-19T12:00:33;4.15;;;1.13;;
82742;SDS011;72483;50.656;7.216;2023-09-19T12:03:02;5.75;;;1.50;;
82742;SDS011;72483;50.656;7.216;2023-09-19T12:05:36;7.00;;;1.63;;
82742;SDS011;72483;50.656;7.216;2023-09-19T12:08:02;4.07;;;1.30;;
82742;SDS011;72483;50.656;7.216;2023-09-19T12:10:32;6.10;;;1.48;;
82742;SDS011;72483;50.656;7.216;2023-09-19T12:13:00;4.38;;;1.42;;
82742;SDS011;72483;50.656;7.216;2023-09-19T12:15:28;6.07;;;1.63;;
82742;SDS011;72483;50.656;7.216;2023-09-19T12:18:00;5.10;;;1.48;;
82742;SDS011;72483;50.656;7.216;2023-09-19T12:20:41;5.55;;;1.50;;
82742;SDS011;72483;50.656;7.216;2023-09-19T12:23:12;4.50;;;1.20;;
82742;SDS011;72483;50.656;7.216;2023-09-19T12:25:41;5.97;;;1.35;;
82742;SDS011;72483;50.656;7.216;2023-09-19T12:28:10;6.70;;;1.35;;
82742;SDS011;72483;50.656;7.216;2023-09-19T12:30:38;4.35;;;1.30;;
82742;SDS011;72483;50.656;7.216;2023-09-19T12:33:13;8.13;;;1.65;;
82742;SDS011;72483;50.656;7.216;2023-09-19T12:35:41;3.65;;;1.20;;
82742;SDS011;72483;50.656;7.216;2023-09-19T12:38:10;4.50;;;1.48;;
82742;SDS011;72483;50.656;7.216;2023-09-19T12:40:37;3.85;;;0.95;;
82742;SDS011;72483;50.656;7.216;2023-09-19T12:43:07;5.03;;;1.20;;
82742;SDS011;72483;50.656;7.216;2023-09-19T12:45:40;3.13;;;1.20;;
82742;SDS011;72483;50.656;7.216;2023-09-19T12:48:19;4.90;;;1.20;;
82742;SDS011;72483;50.656;7.216;2023-09-19T12:51:00;3.63;;;1.15;;
82742;SDS011;72483;50.656;7.216;2023-09-19T12:53:30;4.18;;;1.33;;
82742;SDS011;72483;50.656;7.216;2023-09-19T12:55:58;2.25;;;0.85;;
82742;SDS011;72483;50.656;7.216;2023-09-19T12:58:27;2.65;;;0.63;;
82742;SDS011;72483;50.656;7.216;2023-09-19T13:00:55;3.58;;;1.17;;
82742;SDS011;72483;50.656;7.216;2023-09-19T13:03:25;4.97;;;1.52;;
82742;SDS011;72483;50.656;7.216;2023-09-19T13:08:21;2.38;;;1.00;;
82742;SDS011;72483;50.656;7.216;2023-09-19T13:11:03;5.50;;;1.40;;
82742;SDS011;72483;50.656;7.216;2023-09-19T13:13:37;3.55;;;1.10;;
82742;SDS011;72483;50.656;7.216;2023-09-19T13:16:05;2.78;;;0.80;;
82742;SDS011;72483;50.656;7.216;2023-09-19T13:18:44;6.45;;;1.35;;
82742;SDS011;72483;50.656;7.216;2023-09-19T13:21:12;3.33;;;0.95;;
82742;SDS011;72483;50.656;7.216;2023-09-19T13:23:47;3.40;;;1.15;;
82742;SDS011;72483;50.656;7.216;2023-09-19T13:26:15;4.25;;;1.17;;
82742;SDS011;72483;50.656;7.216;2023-09-19T13:28:43;6.78;;;1.65;;
82742;SDS011;72483;50.656;7.216;2023-09-19T13:31:10;3.88;;;1.10;;
82742;SDS011;72483;50.656;7.216;2023-09-19T13:33:42;3.17;;;1.02;;
82742;SDS011;72483;50.656;7.216;2023-09-19T13:36:09;3.47;;;1.00;;
82742;SDS011;72483;50.656;7.216;2023-09-19T13:38:37;4.55;;;1.00;;
82742;SDS011;72483;50.656;7.216;2023-09-19T13:41:03;2.95;;;1.17;;
82742;SDS011;72483;50.656;7.216;2023-09-19T13:43:31;1.60;;;0.73;;
82742;SDS011;72483;50.656;7.216;2023-09-19T13:45:59;3.63;;;1.20;;
82742;SDS011;72483;50.656;7.216;2023-09-19T13:48:26;4.15;;;1.25;;
82742;SDS011;72483;50.656;7.216;2023-09-19T13:50:54;5.70;;;1.48;;
82742;SDS011;72483;50.656;7.216;2023-09-19T13:53:21;3.03;;;0.73;;
82742;SDS011;72483;50.656;7.216;2023-09-19T13:55:48;4.00;;;1.08;;
82742;SDS011;72483;50.656;7.216;2023-09-19T13:58:15;3.17;;;1.10;;
82742;SDS011;72483;50.656;7.216;2023-09-19T14:00:41;4.68;;;1.00;;
82742;SDS011;72483;50.656;7.216;2023-09-19T14:03:09;2.35;;;0.80;;
82742;SDS011;72483;50.656;7.216;2023-09-19T14:05:36;2.92;;;1.20;;
82742;SDS011;72483;50.656;7.216;2023-09-19T14:08:03;4.22;;;1.08;;
82742;SDS011;72483;50.656;7.216;2023-09-19T14:10:30;4.47;;;1.35;;
82742;SDS011;72483;50.656;7.216;2023-09-19T14:12:57;4.10;;;1.02;;
82742;SDS011;72483;50.656;7.216;2023-09-19T14:15:24;4.03;;;1.20;;
82742;SDS011;72483;50.656;7.216;2023-09-19T14:17:54;2.80;;;1.05;;
82742;SDS011;72483;50.656;7.216;2023-09-19T14:20:23;4.10;;;1.05;;
82742;SDS011;72483;50.656;7.216;2023-09-19T14:22:50;3.50;;;0.98;;
82742;SDS011;72483;50.656;7.216;2023-09-19T14:25:16;3.88;;;0.90;;
82742;SDS011;72483;50.656;7.216;2023-09-19T14:27:43;4.38;;;1.27;;
82742;SDS011;72483;50.656;7.216;2023-09-19T14:30:09;4.70;;;1.38;;
82742;SDS011;72483;50.656;7.216;2023-09-19T14:32:36;3.85;;;1.20;;
82742;SDS011;72483;50.656;7.216;2023-09-19T14:35:04;2.95;;;0.77;;
82742;SDS011;72483;50.656;7.216;2023-09-19T14:37:33;3.13;;;1.10;;
82742;SDS011;72483;50.656;7.216;2023-09-19T14:39:59;3.03;;;0.75;;
82742;SDS011;72483;50.656;7.216;2023-09-19T14:42:28;3.67;;;1.17;;
82742;SDS011;72483;50.656;7.216;2023-09-19T14:44:55;3.00;;;0.90;;
82742;SDS011;72483;50.656;7.216;2023-09-19T14:47:21;3.00;;;1.20;;
82742;SDS011;72483;50.656;7.216;2023-09-19T14:49:48;4.03;;;0.93;;
82742;SDS011;72483;50.656;7.216;2023-09-19T14:52:15;3.55;;;0.80;;
82742;SDS011;72483;50.656;7.216;2023-09-19T14:54:43;3.63;;;1.00;;
82742;SDS011;72483;50.656;7.216;2023-09-19T14:57:09;3.30;;;1.17;;
82742;SDS011;72483;50.656;7.216;2023-09-19T14:59:36;4.70;;;1.08;;
82742;SDS011;72483;50.656;7.216;2023-09-19T15:02:03;4.70;;;1.10;;
82742;SDS011;72483;50.656;7.216;2023-09-19T15:04:29;6.88;;;1.25;;
82742;SDS011;72483;50.656;7.216;2023-09-19T15:06:56;4.25;;;1.30;;
82742;SDS011;72483;50.656;7.216;2023-09-19T15:09:24;2.78;;;0.85;;
82742;SDS011;72483;50.656;7.216;2023-09-19T15:11:52;2.15;;;1.05;;
82742;SDS011;72483;50.656;7.216;2023-09-19T15:14:19;4.80;;;0.93;;
82742;SDS011;72483;50.656;7.216;2023-09-19T15:16:46;2.25;;;0.80;;
82742;SDS011;72483;50.656;7.216;2023-09-19T15:19:13;3.35;;;0.80;;
82742;SDS011;72483;50.656;7.216;2023-09-19T15:21:40;3.25;;;1.10;;
82742;SDS011;72483;50.656;7.216;2023-09-19T15:24:06;3.22;;;1.20;;